createdAt,value
2022-11-15T00:00:04.840Z,100142.91
2022-11-15T00:05:06.558Z,100137.22
2022-11-15T00:10:08.552Z,100138.09
2022-11-15T00:15:10.098Z,100134.63
2022-11-15T00:20:12.518Z,100138.91
2022-11-15T00:25:14.124Z,100133.91
2022-11-15T00:30:15.819Z,100124.59
2022-11-15T00:35:17.515Z,100126.22
2022-11-15T00:40:18.969Z,100130.38
2022-11-15T00:45:20.533Z,100130.28
2022-11-15T00:50:22.007Z,100111.59
2022-11-15T00:55:23.461Z,100107.31
2022-11-15T01:00:25.067Z,100102.28
2022-11-15T01:05:26.574Z,100098.13
2022-11-15T01:10:28.125Z,100090.47
2022-11-15T01:15:29.581Z,100092.06
2022-11-15T01:20:31.055Z,100086.88
2022-11-15T01:25:32.527Z,100096.06
2022-11-15T01:30:34.065Z,100091.03
2022-11-15T01:35:40.186Z,100091.00
2022-11-15T01:40:42.230Z,100081.63
2022-11-15T01:45:54.518Z,100082.59
2022-11-15T01:50:56.254Z,100069.66
2022-11-15T01:55:58.441Z,100065.13
2022-11-15T02:01:00.029Z,100056.44
2022-11-15T02:06:02.982Z,100051.09
2022-11-15T02:11:08.693Z,100054.44
2022-11-15T02:16:40.335Z,100029.03
2022-11-15T02:21:59.394Z,100024.78
2022-11-15T02:27:38.320Z,100018.91
2022-11-15T02:32:58.029Z,100003.84
2022-11-15T02:38:17.547Z,100001.50
2022-11-15T02:43:44.173Z,100008.34
2022-11-15T02:48:46.528Z,100002.97
2022-11-15T02:53:48.054Z,99999.22
2022-11-15T02:58:55.460Z,99991.50
2022-11-15T03:04:10.811Z,99993.06
2022-11-15T03:09:31.006Z,99989.69
2022-11-15T03:14:40.263Z,99993.75
2022-11-15T03:19:46.230Z,99974.94
2022-11-15T03:24:59.839Z,99968.75
2022-11-15T03:30:05.270Z,99980.53
2022-11-15T03:35:13.610Z,99964.59
2022-11-15T03:40:16.774Z,99962.97
2022-11-15T03:45:23.430Z,99969.28
2022-11-15T03:50:26.060Z,99978.22
2022-11-15T03:55:27.847Z,99980.19
2022-11-15T04:00:29.851Z,99982.00
2022-11-15T04:05:31.335Z,99983.63
2022-11-15T04:10:32.845Z,99981.06
2022-11-15T04:15:35.027Z,99991.88
2022-11-15T04:20:55.274Z,99990.13
2022-11-15T04:25:59.291Z,99998.84
2022-11-15T04:31:00.899Z,99990.59
2022-11-15T04:36:21.217Z,99984.59
2022-11-15T04:41:22.709Z,99972.69
2022-11-15T04:46:25.043Z,99974.25
2022-11-15T04:51:26.665Z,99963.06
2022-11-15T04:56:28.131Z,99952.06
2022-11-15T05:01:30.824Z,99948.03
2022-11-15T05:06:32.814Z,99960.00
2022-11-15T05:11:34.306Z,99951.41
2022-11-15T05:16:36.328Z,99958.81
2022-11-15T05:21:38.186Z,99960.25
2022-11-15T05:26:39.748Z,99958.25
2022-11-15T05:31:42.611Z,99946.28
2022-11-15T05:36:45.679Z,99954.97
2022-11-15T05:41:53.865Z,99943.25
2022-11-15T05:46:57.829Z,99942.81
2022-11-15T05:52:00.125Z,99948.25
2022-11-15T05:57:02.028Z,99950.25
2022-11-15T06:02:03.609Z,99944.63
2022-11-15T06:07:05.191Z,99936.22
2022-11-15T06:12:06.981Z,99943.81
2022-11-15T06:17:11.303Z,99931.03
2022-11-15T06:22:13.096Z,99935.50
2022-11-15T06:27:14.656Z,99934.56
2022-11-15T06:32:16.129Z,99930.16
2022-11-15T06:37:17.604Z,99922.84
2022-11-15T06:42:19.102Z,99921.44
2022-11-15T06:47:20.628Z,99925.34
2022-11-15T06:52:22.737Z,99930.22
2022-11-15T06:57:24.181Z,99932.44
2022-11-15T07:02:25.668Z,99934.78
2022-11-15T07:07:27.370Z,99941.25
2022-11-15T07:12:28.927Z,99942.91
2022-11-15T07:17:30.458Z,99945.72
2022-11-15T07:22:31.977Z,99947.34
2022-11-15T07:27:33.585Z,99951.75
2022-11-15T07:32:35.653Z,99931.75
2022-11-15T07:37:37.099Z,99931.97
2022-11-15T07:42:53.878Z,99933.09
2022-11-15T07:47:56.908Z,99928.44
2022-11-15T07:53:00.058Z,99928.22
2022-11-15T07:58:03.893Z,99934.75
2022-11-15T08:03:10.040Z,99930.94
2022-11-15T08:08:12.134Z,99930.69
2022-11-15T08:13:14.913Z,99935.94
2022-11-15T08:18:17.619Z,99941.97
2022-11-15T08:23:19.178Z,99933.84
2022-11-15T08:28:20.688Z,99927.69
2022-11-15T08:33:22.259Z,99914.56
2022-11-15T08:38:23.914Z,99921.44
2022-11-15T08:43:25.400Z,99909.56
2022-11-15T08:48:27.115Z,99906.53
2022-11-15T08:53:28.630Z,99901.38
2022-11-15T08:58:30.684Z,99910.19
2022-11-15T09:03:32.723Z,99904.66
2022-11-15T09:08:47.430Z,99905.13
2022-11-15T09:13:49.260Z,99892.66
2022-11-15T09:18:50.924Z,99899.44
2022-11-15T09:23:53.419Z,99898.09
2022-11-15T09:28:54.978Z,99897.34
2022-11-15T09:33:56.811Z,99899.06
2022-11-15T09:39:01.455Z,99895.22
2022-11-15T09:44:33.629Z,99891.81
2022-11-15T09:49:35.358Z,99887.84
2022-11-15T09:54:53.373Z,99882.56
2022-11-15T10:05:48.450Z,99876.66
2022-11-15T10:11:22.629Z,99885.75
2022-11-15T10:16:41.002Z,99891.34
2022-11-15T10:22:13.237Z,99889.25
2022-11-15T10:27:19.894Z,99885.19
2022-11-15T10:32:22.287Z,99872.66
2022-11-15T10:37:31.783Z,99868.91
2022-11-15T10:42:33.254Z,99866.19
2022-11-15T10:47:39.262Z,99856.75
2022-11-15T10:52:48.151Z,99843.59
2022-11-15T10:57:55.119Z,99822.97
2022-11-15T11:02:56.547Z,99818.94
2022-11-15T11:08:23.838Z,99812.66
2022-11-15T11:13:39.365Z,99802.97
2022-11-15T11:18:43.604Z,99785.00
2022-11-15T11:23:55.460Z,99769.72
2022-11-15T11:29:20.233Z,99757.34
2022-11-15T11:34:27.610Z,99744.81
2022-11-15T11:40:14.205Z,99730.75
2022-11-15T11:45:33.192Z,99715.56
2022-11-15T11:50:38.976Z,99722.34
2022-11-15T11:55:48.814Z,99726.13
2022-11-15T12:01:02.875Z,99718.16
2022-11-15T12:06:33.158Z,99712.44
2022-11-15T12:11:43.895Z,99701.06
2022-11-15T12:16:45.397Z,99706.56
2022-11-15T12:22:23.931Z,99696.41
2022-11-15T12:27:31.172Z,99687.78
2022-11-15T12:32:38.692Z,99675.19
2022-11-15T12:37:41.486Z,99661.09
2022-11-15T12:42:58.668Z,99649.94
2022-11-15T12:48:20.108Z,99633.56
2022-11-15T12:53:28.514Z,99632.41
2022-11-15T12:58:49.470Z,99611.34
2022-11-15T13:04:09.588Z,99605.75
2022-11-15T13:09:29.353Z,99606.56
2022-11-15T13:14:44.439Z,99589.63
2022-11-15T13:20:16.055Z,99580.00
2022-11-15T13:25:51.398Z,99573.75
2022-11-15T13:30:59.689Z,99557.50
2022-11-15T13:36:23.117Z,99551.97
2022-11-15T13:41:30.649Z,99550.00
2022-11-15T13:46:34.057Z,99541.72
2022-11-15T13:51:35.531Z,99528.22
2022-11-15T13:56:37.811Z,99527.19
2022-11-15T14:01:43.386Z,99516.59
2022-11-15T14:06:51.866Z,99488.09
2022-11-15T14:11:54.980Z,99491.53
2022-11-15T14:17:01.757Z,99489.13
2022-11-15T14:22:26.526Z,99483.03
2022-11-15T14:27:30.002Z,99478.63
2022-11-15T14:32:44.718Z,99475.06
2022-11-15T14:37:47.152Z,99469.53
2022-11-15T14:42:50.345Z,99458.38
2022-11-15T14:47:51.800Z,99452.91
2022-11-15T14:52:53.279Z,99450.19
2022-11-15T14:57:55.751Z,99428.91
2022-11-15T15:02:57.653Z,99414.31
2022-11-15T15:07:59.937Z,99415.81
2022-11-15T15:13:01.904Z,99413.03
2022-11-15T15:18:06.269Z,99403.53
2022-11-15T15:23:19.029Z,99394.00
2022-11-15T15:28:20.567Z,99395.84
2022-11-15T15:33:22.073Z,99381.47
2022-11-15T15:38:23.797Z,99372.59
2022-11-15T15:43:25.258Z,99373.44
2022-11-15T15:48:26.788Z,99365.34
2022-11-15T15:53:28.282Z,99357.91
2022-11-15T15:58:30.149Z,99356.94
2022-11-15T16:03:32.210Z,99348.72
2022-11-15T16:08:53.451Z,99345.41
2022-11-15T16:13:55.167Z,99343.97
2022-11-15T16:18:56.834Z,99328.97
2022-11-15T16:23:58.361Z,99325.00
2022-11-15T16:28:59.840Z,99314.94
2022-11-15T16:34:01.444Z,99313.28
2022-11-15T16:39:07.525Z,99309.00
2022-11-15T16:44:09.056Z,99302.41
2022-11-15T16:49:17.341Z,99295.75
2022-11-15T16:54:18.957Z,99297.09
2022-11-15T16:59:20.990Z,99294.09
2022-11-15T17:04:22.822Z,99289.47
2022-11-15T17:09:24.801Z,99280.41
2022-11-15T17:14:26.362Z,99283.25
2022-11-15T17:19:27.846Z,99279.78
2022-11-15T17:24:29.355Z,99272.94
2022-11-15T17:29:30.869Z,99278.84
2022-11-15T17:34:32.426Z,99279.13
2022-11-15T17:39:33.918Z,99276.91
2022-11-15T17:44:35.417Z,99272.19
2022-11-15T17:49:39.474Z,99276.72
2022-11-15T17:54:40.995Z,99274.34
2022-11-15T17:59:42.497Z,99287.44
2022-11-15T18:04:43.949Z,99288.81
2022-11-15T18:09:45.515Z,99294.28
2022-11-15T18:14:47.004Z,99300.38
2022-11-15T18:19:48.662Z,99296.53
2022-11-15T18:24:50.343Z,99282.28
2022-11-15T18:29:51.909Z,99286.94
2022-11-15T18:34:53.656Z,99282.00
2022-11-15T18:39:55.216Z,99274.41
2022-11-15T18:44:57.077Z,99259.91
2022-11-15T18:49:59.675Z,99254.16
2022-11-15T18:55:01.130Z,99263.66
2022-11-15T19:00:03.067Z,99247.22
2022-11-15T19:05:05.020Z,99243.44
2022-11-15T19:10:07.135Z,99238.88
2022-11-15T19:15:10.403Z,99241.44
2022-11-15T19:20:12.130Z,99246.38
2022-11-15T19:25:13.627Z,99237.31
2022-11-15T19:30:15.298Z,99238.34
2022-11-15T19:35:16.959Z,99226.34
2022-11-15T19:40:18.500Z,99228.03
2022-11-15T19:45:20.521Z,99214.88
2022-11-15T19:50:22.033Z,99208.13
2022-11-15T19:55:23.579Z,99203.19
2022-11-15T20:00:25.112Z,99204.66
2022-11-15T20:05:26.564Z,99204.13
2022-11-15T20:10:28.034Z,99201.41
2022-11-15T20:15:29.528Z,99194.84
2022-11-15T20:20:31.020Z,99199.31
2022-11-15T20:25:32.531Z,99197.59
2022-11-15T20:30:34.171Z,99200.31
2022-11-15T20:35:35.601Z,99194.44
2022-11-15T20:40:39.139Z,99188.44
2022-11-15T20:45:44.034Z,99183.59
2022-11-15T20:50:46.805Z,99181.63
2022-11-15T20:55:49.790Z,99180.81
2022-11-15T21:00:55.537Z,99175.53
2022-11-15T21:05:57.313Z,99170.38
2022-11-15T21:11:17.404Z,99175.47
2022-11-15T21:16:18.876Z,99163.53
2022-11-15T21:21:20.466Z,99162.88
2022-11-15T21:26:22.271Z,99155.50
2022-11-15T21:31:23.752Z,99151.28
2022-11-15T21:36:25.243Z,99147.75
2022-11-15T21:41:26.876Z,99163.22
2022-11-15T21:46:29.788Z,99165.03
2022-11-15T21:51:31.652Z,99162.72
2022-11-15T21:56:33.735Z,99158.56
2022-11-15T22:01:53.953Z,99148.44
2022-11-15T22:06:55.514Z,99145.97
2022-11-15T22:11:57.024Z,99139.91
2022-11-15T22:16:58.512Z,99138.59
2022-11-15T22:22:00.032Z,99135.25
2022-11-15T22:27:01.708Z,99138.34
2022-11-15T22:32:03.388Z,99135.47
2022-11-15T22:37:20.115Z,99133.66
2022-11-15T22:42:24.106Z,99135.28
2022-11-15T22:47:26.040Z,99126.91
2022-11-15T22:52:27.609Z,99125.34
2022-11-15T22:57:29.095Z,99115.06
2022-11-15T23:02:30.551Z,99113.06
2022-11-15T23:07:34.070Z,99105.41
2022-11-15T23:12:54.377Z,99104.44
2022-11-15T23:17:56.447Z,99096.41
2022-11-15T23:22:59.085Z,99098.97
2022-11-15T23:28:02.953Z,99088.00
2022-11-15T23:33:23.261Z,99091.13
2022-11-15T23:38:24.809Z,99090.31
2022-11-15T23:43:26.358Z,99103.63
2022-11-15T23:48:28.314Z,99103.44
2022-11-15T23:53:29.833Z,99098.88
2022-11-15T23:58:32.305Z,99096.97
